TimePST,TemperatureF,Dew PointF,Humidity,Sea Level PressureIn,VisibilityMPH,Wind Direction,Wind SpeedMPH,Gust SpeedMPH,PrecipitationIn,Events,Conditions,WindDirDegrees,DateUTC
12:15 AM,41.0,37.9,89,30.05,1.8,Calm,Calm,-,N/A,,Clear,0,2013-11-28 08:15:00
12:43 AM,37.0,33.1,86,30.04,0.5,ESE,4.6,-,N/A,Fog,Fog,110,2013-11-28 08:43:00
12:56 AM,37.9,34.0,86,30.06,0.8,ESE,5.8,-,N/A,,Clear,120,2013-11-28 08:56:00
1:09 AM,37.9,34.0,86,30.04,1.5,ESE,6.9,-,N/A,,Clear,120,2013-11-28 09:09:00
1:23 AM,37.0,33.1,86,30.04,0.8,ESE,8.1,-,N/A,,Clear,120,2013-11-28 09:23:00
1:34 AM,37.9,34.0,86,30.05,2.0,East,9.2,-,N/A,,Clear,100,2013-11-28 09:34:00
1:42 AM,39.0,35.1,86,30.05,9.0,East,8.1,-,N/A,,Clear,90,2013-11-28 09:42:00
1:56 AM,41.0,37.0,86,30.06,10.0,East,4.6,-,N/A,,Clear,100,2013-11-28 09:56:00
2:56 AM,39.0,36.0,89,30.07,10.0,SE,4.6,-,N/A,,Clear,140,2013-11-28 10:56:00
3:13 AM,37.9,34.0,86,30.05,0.8,ESE,4.6,-,N/A,,Mist,120,2013-11-28 11:13:00
3:24 AM,37.0,33.1,86,30.05,0.2,SE,5.8,-,N/A,Fog,Fog,130,2013-11-28 11:24:00
3:37 AM,37.9,35.1,89,30.05,0.5,ESE,5.8,-,N/A,Fog,Fog,120,2013-11-28 11:37:00
3:56 AM,37.9,35.1,89,30.07,0.5,ESE,6.9,-,N/A,Fog,Fog,120,2013-11-28 11:56:00
4:08 AM,37.9,35.1,89,30.06,1.0,ESE,5.8,-,N/A,,Clear,120,2013-11-28 12:08:00
4:16 AM,37.0,34.0,89,30.06,0.5,SE,8.1,-,N/A,Fog,Fog,130,2013-11-28 12:16:00
4:53 AM,37.4,33.8,87,30.06,1.2,ESE,8.1,-,N/A,,Partly Cloudy,120,2013-11-28 12:53:00
4:56 AM,37.0,34.0,89,30.07,2.0,ESE,8.1,-,N/A,,Partly Cloudy,120,2013-11-28 12:56:00
5:04 AM,37.9,34.0,86,30.06,3.0,ESE,5.8,-,N/A,,Partly Cloudy,120,2013-11-28 13:04:00
5:39 AM,39.9,36.0,86,30.06,1.8,ESE,9.2,-,N/A,,Clear,120,2013-11-28 13:39:00
5:44 AM,39.0,35.1,86,30.07,0.8,ESE,6.9,-,N/A,,Mist,120,2013-11-28 13:44:00
5:56 AM,37.9,34.0,86,30.08,0.5,ESE,8.1,-,N/A,Fog,Fog,120,2013-11-28 13:56:00
6:37 AM,37.0,34.0,89,30.08,1.2,SE,6.9,-,N/A,,Scattered Clouds,140,2013-11-28 14:37:00
6:43 AM,37.0,33.1,86,30.08,3.0,SE,8.1,-,N/A,,Scattered Clouds,140,2013-11-28 14:43:00
6:56 AM,37.0,34.0,89,30.09,5.0,SE,9.2,-,N/A,,Partly Cloudy,130,2013-11-28 14:56:00
7:00 AM,36.0,33.1,89,30.08,1.8,SE,8.1,-,N/A,,Clear,130,2013-11-28 15:00:00
7:10 AM,37.9,34.0,86,30.08,0.8,ESE,8.1,-,N/A,,Clear,120,2013-11-28 15:10:00
7:14 AM,39.0,35.1,86,30.08,2.0,ESE,8.1,-,N/A,,Clear,120,2013-11-28 15:14:00
7:25 AM,37.0,34.0,89,30.08,0.8,SE,6.9,-,N/A,,Mist,130,2013-11-28 15:25:00
7:36 AM,36.0,33.1,89,30.09,0.2,SE,4.6,-,N/A,Fog,Fog,130,2013-11-28 15:36:00
7:51 AM,37.4,33.8,87,30.08,0.2,ESE,8.1,-,N/A,Fog,Fog,120,2013-11-28 15:51:00
7:56 AM,37.0,33.1,86,30.10,0.2,ESE,8.1,-,N/A,Fog,Fog,120,2013-11-28 15:56:00
8:46 AM,41.0,37.9,89,30.10,1.0,ESE,4.6,-,N/A,,Mist,110,2013-11-28 16:46:00
8:49 AM,42.1,39.0,89,30.10,2.5,ESE,3.5,-,N/A,,Scattered Clouds,110,2013-11-28 16:49:00
8:56 AM,42.1,39.0,89,30.12,7.0,Calm,Calm,-,N/A,,Scattered Clouds,0,2013-11-28 16:56:00
9:56 AM,43.0,39.0,86,30.12,10.0,ESE,5.8,-,N/A,,Clear,110,2013-11-28 17:56:00
10:56 AM,46.9,39.9,77,30.13,10.0,ESE,4.6,-,N/A,,Clear,110,2013-11-28 18:56:00
11:56 AM,50.0,39.9,68,30.12,10.0,East,5.8,-,N/A,,Clear,100,2013-11-28 19:56:00
12:56 PM,51.1,39.9,66,30.12,10.0,ESE,6.9,-,N/A,,Clear,120,2013-11-28 20:56:00
1:56 PM,54.0,37.9,55,30.12,10.0,ESE,3.5,-,N/A,,Scattered Clouds,110,2013-11-28 21:56:00
2:56 PM,52.0,41.0,66,30.12,10.0,ESE,5.8,-,N/A,,Overcast,110,2013-11-28 22:56:00
3:56 PM,48.9,37.9,66,30.13,10.0,ESE,5.8,-,N/A,,Mostly Cloudy,120,2013-11-28 23:56:00
4:56 PM,46.9,37.9,71,30.14,10.0,SSE,4.6,-,N/A,,Mostly Cloudy,160,2013-11-29 00:56:00
5:56 PM,46.0,37.9,73,30.15,10.0,SSE,4.6,-,N/A,,Mostly Cloudy,150,2013-11-29 01:56:00
6:56 PM,45.0,39.0,80,30.15,10.0,East,8.1,-,N/A,,Overcast,100,2013-11-29 02:56:00
7:56 PM,46.0,39.9,79,30.15,10.0,East,5.8,-,0.00,,Mostly Cloudy,100,2013-11-29 03:56:00
8:56 PM,46.9,41.0,80,30.16,10.0,SE,6.9,-,N/A,,Overcast,140,2013-11-29 04:56:00
9:56 PM,46.9,39.9,77,30.18,10.0,ESE,5.8,-,N/A,,Overcast,120,2013-11-29 05:56:00
10:56 PM,46.0,39.9,79,30.19,10.0,East,6.9,-,0.01,,Overcast,100,2013-11-29 06:56:00
11:56 PM,46.0,39.9,79,30.20,10.0,ESE,8.1,-,N/A,,Mostly Cloudy,110,2013-11-29 07:56:00